Fort Jones, California
Current Conditions -  °F | °C
As of 9:31 AM on Friday 31 Oct 2014 (Local Time) from KSIY Reporting Station
Heavy Rain Heavy Rain  
Wind Chill: 47°   Ceiling: 3800
Heat Index: 47°   Visibility: 2.5mi
Dew Point: 42°   Wind: 0mph
Humidity: 83%   Direction: NA
Pressure: 29.89"   Gusts: NA
Location:  41.61°N, 122.84°W
Report Text: KSIY 311631Z AUTO 00000KT 2 1/2SM +RA OVC038 08/06 A2989 RMK AO2 P0011 T00830056
Loading
Personal Weather Stations






























Interactive Weather Map
Tropical Storm Tracking
New forecast layout! Learn more

10-Day Weather Forecast

Advertisements
Track Severe Weather on mobile